KMGC

Michigan City Municipal-Phillips Field Airport

Michigan City, Indiana, USA
METAR KMGC 212335Z AUTO 07004KT 10SM SCT014 BKN035 BKN041 17/16 A2978 RMK AO2
Observed Flight Rules
Jun-21 @ 23:35 UTC (19 minutes ago) Visual Flight Rules
Wind Visibility Clouds
70° at 4 knots 10 miles
  • Scattered at 1,400' AGL
  • Broken at 3,500' AGL
  • Broken at 4,100' AGL
Temperatures Readings
Current 17°C / 63°F
Dewpoint 16°C / 61°F
Humidity 94%
Altimeter 29.78" Hg
Pressure 1008 hPa
Elevation 200
METAR KMGC 212335Z AUTO 07004KT 10SM SCT014 BKN035 BKN041 17/16 A2978 RMK AO2
Observed Flight Rules
Jun-21 @ 23:35 UTC
(19 minutes ago)
VFR
Wind Visibility
70° at 4 knots 10 miles
Clouds
  • Scattered at 1,400' AGL
  • Broken at 3,500' AGL
  • Broken at 4,100' AGL
Temperature Dewpoint
17°C / 63°F 16°C / 61°F
Humidity Altimeter Pressure
94% 29.78" Hg 1008 hPa